createdAt,value
2022-11-15T00:01:13.237Z,30.50
2022-11-15T00:04:00.192Z,21.60
2022-11-15T00:06:46.884Z,21.00
2022-11-15T00:09:33.643Z,19.70
2022-11-15T00:12:20.400Z,19.80
2022-11-15T00:15:08.244Z,23.20
2022-11-15T00:17:55.257Z,20.60
2022-11-15T00:20:42.647Z,21.10
2022-11-15T00:23:29.409Z,21.90
2022-11-15T00:26:17.598Z,19.60
2022-11-15T00:29:04.481Z,16.40
2022-11-15T00:31:51.520Z,15.90
2022-11-15T00:34:38.192Z,17.50
2022-11-15T00:37:25.574Z,17.00
2022-11-15T00:40:13.958Z,19.30
2022-11-15T00:43:01.102Z,22.40
2022-11-15T00:45:48.029Z,20.30
2022-11-15T00:48:35.099Z,22.40
2022-11-15T00:51:21.889Z,24.60
2022-11-15T00:54:09.160Z,20.50
2022-11-15T00:56:55.688Z,20.10
2022-11-15T00:59:42.473Z,22.10
2022-11-15T01:02:29.404Z,21.10
2022-11-15T01:05:22.891Z,20.30
2022-11-15T01:08:17.094Z,40.40
2022-11-15T01:11:13.636Z,35.60
2022-11-15T01:14:00.637Z,26.20
2022-11-15T01:16:47.708Z,27.90
2022-11-15T01:19:35.054Z,23.10
2022-11-15T01:22:22.381Z,25.70
2022-11-15T01:25:09.172Z,31.50
2022-11-15T01:27:56.150Z,28.50
2022-11-15T01:30:43.479Z,31.90
2022-11-15T01:33:31.903Z,26.50
2022-11-15T01:36:25.168Z,15.40
2022-11-15T01:39:12.205Z,14.60
2022-11-15T01:41:59.092Z,26.40
2022-11-15T01:44:49.641Z,25.90
2022-11-15T01:47:41.666Z,16.00
2022-11-15T01:50:32.465Z,20.20
2022-11-15T01:53:22.628Z,41.60
2022-11-15T01:56:13.310Z,18.80
2022-11-15T01:59:04.137Z,24.40
2022-11-15T02:01:51.781Z,11.90
2022-11-15T02:04:47.542Z,25.30
2022-11-15T02:07:36.919Z,14.80
2022-11-15T02:10:25.212Z,14.30
2022-11-15T02:13:12.062Z,41.50
2022-11-15T02:16:33.531Z,14.60
2022-11-15T02:19:32.686Z,15.00
2022-11-15T02:22:47.456Z,15.80
2022-11-15T02:25:49.288Z,30.90
2022-11-15T02:29:07.015Z,13.20
2022-11-15T02:32:05.883Z,16.10
2022-11-15T02:34:58.753Z,16.90
2022-11-15T02:38:09.505Z,13.50
2022-11-15T02:41:04.962Z,12.70
2022-11-15T02:44:00.499Z,15.70
2022-11-15T02:47:13.807Z,16.90
2022-11-15T02:50:07.672Z,16.20
2022-11-15T02:52:54.554Z,19.10
2022-11-15T02:55:51.630Z,35.40
2022-11-15T02:58:47.612Z,21.00
2022-11-15T03:01:53.232Z,16.10
2022-11-15T03:04:49.321Z,16.40
2022-11-15T03:07:49.677Z,14.40
2022-11-15T03:10:42.128Z,13.80
2022-11-15T03:14:01.225Z,14.50
2022-11-15T03:16:55.980Z,13.30
2022-11-15T03:22:34.429Z,16.40
2022-11-15T03:25:25.545Z,10.70
2022-11-15T03:28:21.082Z,13.30
2022-11-15T03:31:29.313Z,17.00
2022-11-15T03:34:43.125Z,18.80
2022-11-15T03:37:50.414Z,16.50
2022-11-15T03:40:41.371Z,12.00
2022-11-15T03:43:34.286Z,11.80
2022-11-15T03:46:29.220Z,15.70
2022-11-15T03:49:26.840Z,13.90
2022-11-15T03:52:17.048Z,9.70
2022-11-15T03:55:07.090Z,11.40
2022-11-15T03:57:59.129Z,11.50
2022-11-15T04:00:45.990Z,13.50
2022-11-15T04:03:33.120Z,12.60
2022-11-15T04:06:20.386Z,9.80
2022-11-15T04:09:07.864Z,10.60
2022-11-15T04:11:54.671Z,13.00
2022-11-15T04:15:01.753Z,10.50
2022-11-15T04:17:52.122Z,12.40
2022-11-15T04:20:58.082Z,9.80
2022-11-15T04:24:03.014Z,10.30
2022-11-15T04:29:36.533Z,11.70
2022-11-15T04:32:23.489Z,13.90
2022-11-15T04:35:10.564Z,13.20
2022-11-15T04:37:58.732Z,16.00
2022-11-15T04:40:45.505Z,10.00
2022-11-15T04:43:32.814Z,12.10
2022-11-15T04:46:19.829Z,8.60
2022-11-15T04:49:06.611Z,12.80
2022-11-15T04:51:53.477Z,20.10
2022-11-15T04:54:40.218Z,16.20
2022-11-15T04:57:27.222Z,12.30
2022-11-15T05:00:16.868Z,16.80
2022-11-15T05:03:22.600Z,18.30
2022-11-15T05:06:09.279Z,16.80
2022-11-15T05:08:56.909Z,14.30
2022-11-15T05:11:43.674Z,67.70
2022-11-15T05:14:30.397Z,9.70
2022-11-15T05:17:17.431Z,16.00
2022-11-15T05:20:04.597Z,17.10
2022-11-15T05:22:51.596Z,12.80
2022-11-15T05:25:38.681Z,9.40
2022-11-15T05:28:25.549Z,14.60
2022-11-15T05:31:17.581Z,32.30
2022-11-15T05:34:06.092Z,36.20
2022-11-15T05:36:52.716Z,23.30
2022-11-15T05:39:39.566Z,39.30
2022-11-15T05:42:28.862Z,42.10
2022-11-15T05:45:16.465Z,39.10
2022-11-15T05:48:08.740Z,37.20
2022-11-15T05:50:56.393Z,35.90
2022-11-15T05:53:44.832Z,37.30
2022-11-15T05:56:31.755Z,40.30
2022-11-15T05:59:19.677Z,52.10
2022-11-15T06:02:20.528Z,47.50
2022-11-15T06:05:10.752Z,86.90
2022-11-15T06:08:00.907Z,34.80
2022-11-15T06:10:47.797Z,40.50
2022-11-15T06:13:35.383Z,106.40
2022-11-15T06:16:22.067Z,109.00
2022-11-15T06:19:09.136Z,37.10
2022-11-15T06:21:56.042Z,16.50
2022-11-15T06:24:45.075Z,15.80
2022-11-15T06:27:31.705Z,33.40
2022-11-15T06:30:18.891Z,29.50
2022-11-15T06:33:09.942Z,78.10
2022-11-15T06:35:56.954Z,107.20
2022-11-15T06:38:45.359Z,45.50
2022-11-15T06:41:36.680Z,16.90
2022-11-15T06:44:24.049Z,29.40
2022-11-15T06:47:11.589Z,46.30
2022-11-15T06:49:58.500Z,24.60
2022-11-15T06:52:45.656Z,13.90
2022-11-15T06:55:32.944Z,21.10
2022-11-15T06:58:22.351Z,24.70
2022-11-15T07:01:15.265Z,27.20
2022-11-15T07:04:03.850Z,39.20
2022-11-15T07:06:52.153Z,19.30
2022-11-15T07:09:41.739Z,21.20
2022-11-15T07:12:31.664Z,17.30
2022-11-15T07:15:23.716Z,13.30
2022-11-15T07:18:17.304Z,17.30
2022-11-15T07:21:11.834Z,30.40
2022-11-15T07:24:00.064Z,28.90
2022-11-15T07:26:51.207Z,26.70
2022-11-15T07:29:51.569Z,62.80
2022-11-15T07:32:50.005Z,187.90
2022-11-15T07:35:37.518Z,20.80
2022-11-15T07:38:24.480Z,15.10
2022-11-15T07:41:14.991Z,25.00
2022-11-15T07:44:08.527Z,18.50
2022-11-15T07:46:55.712Z,15.20
2022-11-15T07:49:42.858Z,15.80
2022-11-15T07:52:32.959Z,11.70
2022-11-15T07:55:38.748Z,11.70
2022-11-15T07:58:27.485Z,10.90
2022-11-15T08:01:15.916Z,11.70
2022-11-15T08:04:06.153Z,11.50
2022-11-15T08:06:53.203Z,13.00
2022-11-15T08:09:40.472Z,14.30
2022-11-15T08:12:33.657Z,12.50
2022-11-15T08:15:20.533Z,11.10
2022-11-15T08:18:14.658Z,13.40
2022-11-15T08:21:03.539Z,12.10
2022-11-15T08:23:50.828Z,12.50
2022-11-15T08:26:38.201Z,11.00
2022-11-15T08:29:24.962Z,8.60
2022-11-15T08:32:12.768Z,11.30
2022-11-15T08:34:59.683Z,24.80
2022-11-15T08:37:46.617Z,24.40
2022-11-15T08:40:39.577Z,26.70
2022-11-15T08:43:27.539Z,16.80
2022-11-15T08:46:15.148Z,14.50
2022-11-15T08:49:02.333Z,12.80
2022-11-15T08:51:53.598Z,14.00
2022-11-15T08:54:58.296Z,14.50
2022-11-15T08:57:57.629Z,12.80
2022-11-15T09:00:53.072Z,16.20
2022-11-15T09:03:42.087Z,21.10
2022-11-15T09:06:28.944Z,58.20
2022-11-15T09:09:19.103Z,55.90
2022-11-15T09:12:12.038Z,16.80
2022-11-15T09:15:00.035Z,16.00
2022-11-15T09:17:47.411Z,16.30
2022-11-15T09:20:34.539Z,15.40
2022-11-15T09:23:21.274Z,12.30
2022-11-15T09:26:08.194Z,13.10
2022-11-15T09:29:08.918Z,11.60
2022-11-15T09:31:56.636Z,11.70
2022-11-15T09:34:43.644Z,10.90
2022-11-15T09:37:33.441Z,11.30
2022-11-15T09:40:23.985Z,14.10
2022-11-15T09:43:36.661Z,13.00
2022-11-15T09:47:03.988Z,17.20
2022-11-15T09:50:08.197Z,15.00
2022-11-15T09:52:39.347Z,12.00
2022-11-15T09:55:11.536Z,11.70
2022-11-15T09:58:37.512Z,12.20
2022-11-15T10:01:14.569Z,12.50
2022-11-15T10:07:04.391Z,13.80
2022-11-15T10:12:56.689Z,12.20
2022-11-15T10:15:25.289Z,15.40
2022-11-15T10:18:15.367Z,15.30
2022-11-15T10:20:52.041Z,12.60
2022-11-15T10:23:24.772Z,10.30
2022-11-15T10:26:12.847Z,11.20
2022-11-15T10:28:42.658Z,12.60
2022-11-15T10:31:23.612Z,11.30
2022-11-15T10:33:52.832Z,9.80
2022-11-15T10:36:26.319Z,11.20
2022-11-15T10:38:59.982Z,9.70
2022-11-15T10:41:32.949Z,9.70
2022-11-15T10:44:13.416Z,10.70
2022-11-15T10:47:04.738Z,12.20
2022-11-15T10:49:34.668Z,11.20
2022-11-15T10:52:20.433Z,17.00
2022-11-15T10:55:03.925Z,12.70
2022-11-15T10:57:40.183Z,11.90
2022-11-15T11:00:11.310Z,16.30
2022-11-15T11:03:19.070Z,10.20
2022-11-15T11:06:10.681Z,12.30
2022-11-15T11:09:07.847Z,13.90
2022-11-15T11:11:47.769Z,12.40
2022-11-15T11:14:23.289Z,14.10
2022-11-15T11:17:03.733Z,12.60
2022-11-15T11:19:52.459Z,13.00
2022-11-15T11:22:32.893Z,10.00
2022-11-15T11:25:22.662Z,10.40
2022-11-15T11:28:13.295Z,15.40
2022-11-15T11:31:15.738Z,16.60
2022-11-15T11:34:03.397Z,17.20
2022-11-15T11:36:45.247Z,9.90
2022-11-15T11:39:40.090Z,13.40
2022-11-15T11:42:22.903Z,21.20
2022-11-15T11:45:11.540Z,18.90
2022-11-15T11:47:49.874Z,17.00
2022-11-15T11:50:29.044Z,14.80
2022-11-15T11:53:12.310Z,16.50
2022-11-15T11:55:46.645Z,13.30
2022-11-15T12:01:16.315Z,17.20
2022-11-15T12:04:00.591Z,12.00
2022-11-15T12:06:52.808Z,13.60
2022-11-15T12:09:33.551Z,13.10
2022-11-15T12:12:26.376Z,12.40
2022-11-15T12:15:11.072Z,14.10
2022-11-15T12:17:42.509Z,15.00
2022-11-15T12:20:26.520Z,13.70
2022-11-15T12:23:06.906Z,14.20
2022-11-15T12:25:51.734Z,16.00
2022-11-15T12:31:34.659Z,15.00
2022-11-15T12:34:13.693Z,18.90
2022-11-15T12:36:45.267Z,13.60
2022-11-15T12:39:15.037Z,15.70
2022-11-15T12:42:04.829Z,12.20
2022-11-15T12:44:33.015Z,13.00
2022-11-15T12:47:06.157Z,14.90
2022-11-15T12:49:37.889Z,231.90
2022-11-15T12:52:08.480Z,61.00
2022-11-15T12:54:42.703Z,381.30
2022-11-15T12:57:16.645Z,92.80
2022-11-15T13:00:02.720Z,82.20
2022-11-15T13:02:47.640Z,383.90
2022-11-15T13:07:44.226Z,107.20
2022-11-15T13:10:28.244Z,43.60
2022-11-15T13:12:59.324Z,15.00
2022-11-15T13:15:57.608Z,22.70
2022-11-15T13:18:36.071Z,21.10
2022-11-15T13:21:26.778Z,22.40
2022-11-15T13:23:56.543Z,21.50
2022-11-15T13:26:25.481Z,22.90
2022-11-15T13:28:55.932Z,23.50
2022-11-15T13:31:26.471Z,23.20
2022-11-15T13:33:58.409Z,27.40
2022-11-15T13:36:34.424Z,26.70
2022-11-15T13:39:07.315Z,26.50
2022-11-15T13:41:45.456Z,28.70
2022-11-15T13:44:25.457Z,25.30
2022-11-15T13:47:11.052Z,25.30
2022-11-15T13:49:39.447Z,28.70
2022-11-15T13:52:12.364Z,46.90
2022-11-15T13:54:56.451Z,120.20
2022-11-15T13:57:28.961Z,109.90
2022-11-15T14:00:07.202Z,78.80
2022-11-15T14:02:42.362Z,69.50
2022-11-15T14:05:21.080Z,82.50
2022-11-15T14:08:02.577Z,80.40
2022-11-15T14:10:34.953Z,64.70
2022-11-15T14:13:04.684Z,72.20
2022-11-15T14:15:34.404Z,92.90
2022-11-15T14:18:03.395Z,54.00
2022-11-15T14:20:38.027Z,41.10
2022-11-15T14:23:27.616Z,27.40
2022-11-15T14:26:00.340Z,35.00
2022-11-15T14:28:28.549Z,29.50
2022-11-15T14:30:59.556Z,61.60
2022-11-15T14:33:35.918Z,49.50
2022-11-15T14:36:24.682Z,85.80
2022-11-15T14:38:53.209Z,117.60
2022-11-15T14:41:27.506Z,92.20
2022-11-15T14:46:23.888Z,160.80
2022-11-15T14:48:52.120Z,81.00
2022-11-15T14:51:20.386Z,166.90
2022-11-15T14:53:49.167Z,108.70
2022-11-15T14:56:19.772Z,42.10
2022-11-15T14:58:47.924Z,191.70
2022-11-15T15:01:26.725Z,68.80
2022-11-15T15:03:58.199Z,18.20
2022-11-15T15:06:27.085Z,17.70
2022-11-15T15:08:55.380Z,16.60
2022-11-15T15:11:29.460Z,25.40
2022-11-15T15:14:01.471Z,31.80
2022-11-15T15:16:29.679Z,28.50
2022-11-15T15:18:57.908Z,87.30
2022-11-15T15:21:33.823Z,56.20
2022-11-15T15:24:05.054Z,78.40
2022-11-15T15:26:37.636Z,131.40
2022-11-15T15:29:06.071Z,38.90
2022-11-15T15:31:34.552Z,129.20
2022-11-15T15:34:02.906Z,99.20
2022-11-15T15:36:31.068Z,120.80
2022-11-15T15:38:59.572Z,78.10
2022-11-15T15:41:27.686Z,48.30
2022-11-15T15:43:55.908Z,76.40
2022-11-15T15:46:24.031Z,85.80
2022-11-15T15:48:52.106Z,59.90
2022-11-15T15:51:20.941Z,62.90
2022-11-15T15:53:49.918Z,65.30
2022-11-15T15:56:17.977Z,84.20
2022-11-15T15:58:46.234Z,76.90
2022-11-15T16:01:14.482Z,79.00
2022-11-15T16:03:42.625Z,83.40
2022-11-15T16:06:37.746Z,76.80
2022-11-15T16:09:15.883Z,75.10
2022-11-15T16:11:46.506Z,96.50
2022-11-15T16:14:14.656Z,138.00
2022-11-15T16:16:42.783Z,136.90
2022-11-15T16:19:12.730Z,183.00
2022-11-15T16:21:40.869Z,121.50
2022-11-15T16:24:09.009Z,161.80
2022-11-15T16:26:38.597Z,122.20
2022-11-15T16:29:08.104Z,113.90
2022-11-15T16:31:36.352Z,152.60
2022-11-15T16:34:04.479Z,128.10
2022-11-15T16:36:35.437Z,87.20
2022-11-15T16:39:05.256Z,73.70
2022-11-15T16:41:33.916Z,99.80
2022-11-15T16:44:02.265Z,40.40
2022-11-15T16:46:30.520Z,59.30
2022-11-15T16:48:58.718Z,67.20
2022-11-15T16:51:27.337Z,71.10
2022-11-15T16:53:55.451Z,88.10
2022-11-15T16:56:31.443Z,72.60
2022-11-15T16:59:01.289Z,82.60
2022-11-15T17:01:35.665Z,123.30
2022-11-15T17:04:13.270Z,114.10
2022-11-15T17:06:43.382Z,112.60
2022-11-15T17:09:25.867Z,79.30
2022-11-15T17:11:54.360Z,93.20
2022-11-15T17:14:22.723Z,93.40
2022-11-15T17:16:50.900Z,106.10
2022-11-15T17:19:21.228Z,90.70
2022-11-15T17:21:49.965Z,237.30
2022-11-15T17:24:21.111Z,108.50
2022-11-15T17:26:49.626Z,116.20
2022-11-15T17:29:18.803Z,145.40
2022-11-15T17:31:46.957Z,117.80
2022-11-15T17:34:15.201Z,144.30
2022-11-15T17:36:43.310Z,124.00
2022-11-15T17:39:11.493Z,122.20
2022-11-15T17:41:39.550Z,184.80
2022-11-15T17:44:07.687Z,132.00
2022-11-15T17:46:36.596Z,188.60
2022-11-15T17:49:04.919Z,157.00
2022-11-15T17:51:33.916Z,208.30
2022-11-15T17:54:02.301Z,163.00
2022-11-15T17:56:31.617Z,136.90
2022-11-15T17:59:00.801Z,126.90
2022-11-15T18:01:34.928Z,98.30
2022-11-15T18:04:05.761Z,125.60
2022-11-15T18:06:36.001Z,137.10
2022-11-15T18:09:07.393Z,123.50
2022-11-15T18:11:41.584Z,133.10
2022-11-15T18:14:13.942Z,94.00
2022-11-15T18:16:42.606Z,79.90
2022-11-15T18:19:15.275Z,92.90
2022-11-15T18:21:56.385Z,91.80
2022-11-15T18:24:30.577Z,154.70
2022-11-15T18:27:00.548Z,131.90
2022-11-15T18:29:28.677Z,146.50
2022-11-15T18:31:57.697Z,151.00
2022-11-15T18:34:33.661Z,194.80
2022-11-15T18:37:03.149Z,112.90
2022-11-15T18:39:31.416Z,224.20
2022-11-15T18:41:59.568Z,182.00
2022-11-15T18:44:31.078Z,120.40
2022-11-15T18:46:59.257Z,154.60
2022-11-15T18:49:27.427Z,174.00
2022-11-15T18:51:57.103Z,156.60
2022-11-15T18:54:30.617Z,131.60
2022-11-15T18:57:00.218Z,188.90
2022-11-15T18:59:29.797Z,153.80
2022-11-15T19:01:58.003Z,130.30
2022-11-15T19:04:26.385Z,91.50
2022-11-15T19:06:54.741Z,73.20
2022-11-15T19:09:27.460Z,66.20
2022-11-15T19:11:55.732Z,69.20
2022-11-15T19:14:26.267Z,65.90
2022-11-15T19:16:55.241Z,56.50
2022-11-15T19:19:26.355Z,59.90
2022-11-15T19:21:55.003Z,75.80
2022-11-15T19:24:23.243Z,61.80
2022-11-15T19:26:51.436Z,74.70
2022-11-15T19:29:19.626Z,87.00
2022-11-15T19:31:48.998Z,88.00
2022-11-15T19:34:18.090Z,90.30
2022-11-15T19:36:46.899Z,93.80
2022-11-15T19:39:18.112Z,95.30
2022-11-15T19:41:47.149Z,83.40
2022-11-15T19:44:15.689Z,99.00
2022-11-15T19:46:44.507Z,111.40
2022-11-15T19:49:12.856Z,96.10
2022-11-15T19:51:47.312Z,130.40
2022-11-15T19:56:45.625Z,139.10
2022-11-15T19:59:14.397Z,132.10
2022-11-15T20:01:42.697Z,129.70
2022-11-15T20:04:11.015Z,98.10
2022-11-15T20:06:41.908Z,151.40
2022-11-15T20:09:15.607Z,122.40
2022-11-15T20:11:44.256Z,107.80
2022-11-15T20:14:13.393Z,109.90
2022-11-15T20:16:42.009Z,86.10
2022-11-15T20:19:12.750Z,68.00
2022-11-15T20:21:41.743Z,75.50
2022-11-15T20:24:10.451Z,78.90
2022-11-15T20:26:39.412Z,102.80
2022-11-15T20:29:10.290Z,93.20
2022-11-15T20:31:38.439Z,82.90
2022-11-15T20:34:06.697Z,62.00
2022-11-15T20:36:34.832Z,69.90
2022-11-15T20:39:03.809Z,75.40
2022-11-15T20:41:32.151Z,64.70
2022-11-15T20:44:03.086Z,74.60
2022-11-15T20:46:31.433Z,74.20
2022-11-15T20:48:59.701Z,75.40
2022-11-15T20:51:28.066Z,54.10
2022-11-15T20:53:56.276Z,77.10
2022-11-15T20:56:24.777Z,63.40
2022-11-15T20:58:53.550Z,65.60
2022-11-15T21:01:24.487Z,67.60
2022-11-15T21:03:54.338Z,62.20
2022-11-15T21:06:24.064Z,63.60
2022-11-15T21:09:12.409Z,61.60
2022-11-15T21:12:00.232Z,74.10
2022-11-15T21:14:28.356Z,68.90
2022-11-15T21:16:56.416Z,81.10
2022-11-15T21:19:28.991Z,106.00
2022-11-15T21:22:03.368Z,97.80
2022-11-15T21:24:31.565Z,123.00
2022-11-15T21:26:59.754Z,107.90
2022-11-15T21:29:28.717Z,131.00
2022-11-15T21:31:56.876Z,130.60
2022-11-15T21:34:25.043Z,162.90
2022-11-15T21:36:53.165Z,122.90
2022-11-15T21:39:21.399Z,96.70
2022-11-15T21:41:49.539Z,105.50
2022-11-15T21:44:17.741Z,102.00
2022-11-15T21:46:45.960Z,118.60
2022-11-15T21:49:14.499Z,129.00
2022-11-15T21:51:43.157Z,127.80
2022-11-15T21:54:11.264Z,110.70
2022-11-15T21:56:39.562Z,111.30
2022-11-15T21:59:07.642Z,103.70
2022-11-15T22:01:54.764Z,116.80
2022-11-15T22:04:24.193Z,130.20
2022-11-15T22:06:52.516Z,117.80
2022-11-15T22:09:20.729Z,121.20
2022-11-15T22:11:48.896Z,140.50
2022-11-15T22:14:17.805Z,134.50
2022-11-15T22:16:45.967Z,147.00
2022-11-15T22:19:14.288Z,129.70
2022-11-15T22:21:42.568Z,147.20
2022-11-15T22:24:10.885Z,129.90
2022-11-15T22:26:39.122Z,139.90
2022-11-15T22:29:07.424Z,125.50
2022-11-15T22:31:35.556Z,138.10
2022-11-15T22:34:04.024Z,117.80
2022-11-15T22:36:46.786Z,117.60
2022-11-15T22:39:20.993Z,134.10
2022-11-15T22:41:49.289Z,117.60
2022-11-15T22:44:17.651Z,137.00
2022-11-15T22:46:45.809Z,144.00
2022-11-15T22:49:14.038Z,114.60
2022-11-15T22:51:42.205Z,71.70
2022-11-15T22:54:10.509Z,99.80
2022-11-15T22:56:38.746Z,92.60
2022-11-15T22:59:07.044Z,75.60
2022-11-15T23:01:35.261Z,87.50
2022-11-15T23:04:03.697Z,96.90
2022-11-15T23:06:32.224Z,88.80
2022-11-15T23:09:00.461Z,89.60
2022-11-15T23:11:47.162Z,100.70
2022-11-15T23:14:15.318Z,99.10
2022-11-15T23:16:43.579Z,92.60
2022-11-15T23:19:13.034Z,89.60
2022-11-15T23:22:05.061Z,104.90
2022-11-15T23:24:34.022Z,87.20
2022-11-15T23:27:07.365Z,81.50
2022-11-15T23:29:56.378Z,89.10
2022-11-15T23:32:43.088Z,92.20
2022-11-15T23:35:11.237Z,98.70
2022-11-15T23:37:39.705Z,93.90
2022-11-15T23:40:09.254Z,64.50
2022-11-15T23:42:37.562Z,98.50
2022-11-15T23:45:06.758Z,69.40
2022-11-15T23:47:34.963Z,69.40
2022-11-15T23:50:04.189Z,70.80
2022-11-15T23:52:32.361Z,73.60
2022-11-15T23:55:00.710Z,73.60
2022-11-15T23:57:29.197Z,81.40
